createdAt,value
2022-11-01T00:07:57.803Z,97608.91
2022-11-01T00:17:59.476Z,97583.16
2022-11-01T00:28:01.093Z,97586.91
2022-11-01T00:38:03.745Z,97588.47
2022-11-01T00:48:05.889Z,97575.50
2022-11-01T00:58:08.446Z,97569.97
2022-11-01T01:08:10.287Z,97555.94
2022-11-01T01:18:11.846Z,97550.25
2022-11-01T01:28:13.506Z,97578.63
2022-11-01T01:38:15.021Z,97575.69
2022-11-01T01:48:26.875Z,97575.19
2022-11-01T01:58:33.255Z,97576.00
2022-11-01T02:08:37.948Z,97584.97
2022-11-01T02:19:05.882Z,97592.16
2022-11-01T02:29:28.556Z,97605.16
2022-11-01T02:39:34.515Z,97604.34
2022-11-01T02:49:40.482Z,97602.41
2022-11-01T02:59:47.413Z,97613.00
2022-11-01T03:09:48.871Z,97609.28
2022-11-01T03:19:58.832Z,97617.25
2022-11-01T03:30:14.053Z,97624.69
2022-11-01T03:40:17.993Z,97628.34
2022-11-01T03:50:22.846Z,97629.19
2022-11-01T04:00:28.418Z,97650.47
2022-11-01T04:10:30.327Z,97638.81
2022-11-01T04:20:35.265Z,97651.03
2022-11-01T04:30:36.700Z,97646.50
2022-11-01T04:40:38.951Z,97664.50
2022-11-01T04:50:41.147Z,97666.63
2022-11-01T05:00:44.011Z,97671.41
2022-11-01T05:10:45.616Z,97687.56
2022-11-01T05:20:47.085Z,97701.59
2022-11-01T05:30:48.513Z,97713.28
2022-11-01T05:40:50.528Z,97708.50
2022-11-01T05:50:51.985Z,97749.31
2022-11-01T06:01:00.761Z,97755.38
2022-11-01T06:11:04.512Z,97772.31
2022-11-01T06:21:06.186Z,97796.94
2022-11-01T06:31:07.638Z,97810.16
2022-11-01T06:41:09.267Z,97823.75
2022-11-01T06:51:10.877Z,97842.03
2022-11-01T07:01:12.423Z,97855.34
2022-11-01T07:11:13.940Z,97865.94
2022-11-01T07:21:15.449Z,97887.41
2022-11-01T07:31:16.958Z,97882.56
2022-11-01T07:41:18.423Z,97880.59
2022-11-01T07:51:19.901Z,97886.72
2022-11-01T08:01:21.501Z,97894.50
2022-11-01T08:11:23.301Z,97903.72
2022-11-01T08:21:24.740Z,97890.06
2022-11-01T08:31:26.231Z,97895.03
2022-11-01T08:41:30.498Z,97903.03
2022-11-01T08:51:32.664Z,97900.63
2022-11-01T09:01:34.723Z,97892.19
2022-11-01T09:11:36.837Z,97895.13
2022-11-01T09:21:38.269Z,97881.63
2022-11-01T09:31:40.323Z,97902.13
2022-11-01T09:41:50.697Z,97920.50
2022-11-01T09:51:52.558Z,97915.09
2022-11-01T10:02:26.310Z,97923.38
2022-11-01T10:13:05.201Z,97914.50
2022-11-01T10:23:06.736Z,97918.72
2022-11-01T10:33:27.692Z,97923.09
2022-11-01T10:43:32.695Z,97923.56
2022-11-01T10:53:40.954Z,97905.19
2022-11-01T11:03:46.321Z,97899.81
2022-11-01T11:13:54.927Z,97885.63
2022-11-01T11:23:56.462Z,97877.41
2022-11-01T11:34:05.288Z,97888.53
2022-11-01T11:44:38.973Z,97871.19
2022-11-01T11:54:41.514Z,97876.63
2022-11-01T12:04:51.450Z,97876.19
2022-11-01T12:14:56.736Z,97888.16
2022-11-01T12:25:05.025Z,97870.16
2022-11-01T12:35:16.704Z,97869.50
2022-11-01T12:45:43.720Z,97873.75
2022-11-01T12:55:45.280Z,97875.84
2022-11-01T13:06:13.173Z,97878.38
2022-11-01T13:16:24.870Z,97867.13
2022-11-01T13:26:35.607Z,97878.03
2022-11-01T13:36:57.645Z,97875.75
2022-11-01T13:47:35.736Z,97874.38
2022-11-01T13:57:44.773Z,97880.22
2022-11-01T14:07:46.710Z,97888.50
2022-11-01T14:17:57.581Z,97884.19
2022-11-01T14:28:17.441Z,97891.81
2022-11-01T14:38:28.514Z,97891.06
2022-11-01T14:48:37.850Z,97900.25
2022-11-01T14:58:39.644Z,97896.69
2022-11-01T15:08:41.637Z,97904.81
2022-11-01T15:18:51.013Z,97907.91
2022-11-01T15:29:04.755Z,97918.09
2022-11-01T15:39:23.650Z,97925.53
2022-11-01T15:49:37.470Z,97929.97
2022-11-01T16:00:06.613Z,97923.38
2022-11-01T16:10:20.771Z,97938.31
2022-11-01T16:20:43.209Z,97943.16
2022-11-01T16:30:46.367Z,97957.41
2022-11-01T16:40:54.626Z,97972.09
2022-11-01T16:50:58.170Z,97985.22
2022-11-01T17:01:00.540Z,97993.41
2022-11-01T17:11:02.050Z,98000.59
2022-11-01T17:21:07.843Z,98002.97
2022-11-01T17:31:09.448Z,98004.19
2022-11-01T17:41:16.933Z,98007.66
2022-11-01T17:51:18.481Z,98015.66
2022-11-01T18:01:21.291Z,98029.22
2022-11-01T18:11:41.782Z,98028.63
2022-11-01T18:22:32.360Z,98038.88
2022-11-01T18:32:40.069Z,98043.97
2022-11-01T18:42:42.254Z,98041.47
2022-11-01T18:52:44.229Z,98035.22
2022-11-01T19:02:45.709Z,98044.41
2022-11-01T19:12:54.829Z,98049.81
2022-11-01T19:23:02.373Z,98052.53
2022-11-01T19:33:22.527Z,98039.50
2022-11-01T19:43:26.786Z,98036.56
2022-11-01T19:53:32.032Z,98050.09
2022-11-01T20:03:39.586Z,98043.16
2022-11-01T20:13:41.134Z,98060.91
2022-11-01T20:23:42.630Z,98056.63
2022-11-01T20:33:46.612Z,98073.56
2022-11-01T20:43:48.134Z,98080.78
2022-11-01T20:53:49.594Z,98088.25
2022-11-01T21:03:54.660Z,98090.41
2022-11-01T21:13:56.091Z,98105.56
2022-11-01T21:23:58.508Z,98096.84
2022-11-01T21:34:22.068Z,98091.75
2022-11-01T21:44:27.955Z,98098.56
2022-11-01T21:54:31.676Z,98097.19
2022-11-01T22:04:33.567Z,98086.47
2022-11-01T22:14:35.443Z,98087.25
2022-11-01T22:24:36.878Z,98086.69
2022-11-01T22:34:38.353Z,98081.91
2022-11-01T22:44:42.202Z,98079.19
2022-11-01T22:54:48.332Z,98081.69
2022-11-01T23:04:49.823Z,98085.47
2022-11-01T23:14:52.521Z,98098.63
2022-11-01T23:24:54.043Z,98103.94
2022-11-01T23:35:11.691Z,98117.13
2022-11-01T23:45:24.743Z,98130.81
2022-11-01T23:55:29.500Z,98119.00
